< < Back
Terminal Aerodrome Forecast


Current Version              Previous Versions:   1  2  3  4  5  6  7  8  9  

Terminal Aerodrome Forecast

080
FTUS44 KOHX 281545 AAA
TAFBNA
TAF AMD
KBNA 281545Z 2816/2912 19006KT 2SM SHRA BR SCT005 BKN020 OVC040
      TEMPO 2816/2818 BKN005 OVC020
     FM281800 22007KT P6SM VCSH OVC015
     FM290000 21003KT P6SM OVC025
     FM290700 20002KT 4SM BR VCSH OVC015=

Latest METAR

541
SAUS70 KWBC 282000 RRE
MTRBNA
METAR KBNA 281953Z 32007KT 10SM FEW019 BKN036 BKN150 28/22 A2992 RMK AO2
RAB22E33 SLP123 P0000 T02830217 $


USA.gov is the U.S. government's official web portal to all federal, state and local government web resources and services.